Time;durP1;ratioP1;P1;durP2;ratioP2;P2;SDS_P1;SDS_P2;PMS_P1;PMS_P2;Temp;Humidity;BMP_temperature;BMP_pressure;BME280_temperature;BME280_humidity;BME280_pressure;Samples;Min_cycle;Max_cycle;Signal;HPM_P1;HPM_P2
2022/05/03 00:00:07;;;;;;;5.57;5.00;;;;;;;10.49;55.61;101453.00;5055331;28;20422;-71
2022/05/03 00:03:00;;;;;;;5.27;4.77;;;;;;;10.71;55.00;101455.19;5058086;28;20408;-69
2022/05/03 00:05:44;;;;;;;5.50;4.47;;;;;;;10.37;55.86;101459.69;5058684;28;20420;-69
2022/05/03 00:08:30;;;;;;;7.17;5.90;;;;;;;10.66;55.29;101446.38;5058826;28;20423;-69
2022/05/03 00:11:31;;;;;;;5.27;4.83;;;;;;;10.68;55.28;101444.72;5054706;28;20419;-68
2022/05/03 00:14:26;;;;;;;5.10;4.60;;;;;;;10.61;55.77;101430.66;5058831;28;20414;-68
2022/05/03 00:16:52;;;;;;;6.97;5.43;;;;;;;10.52;55.59;101433.06;5058762;28;20421;-70
2022/05/03 00:19:17;;;;;;;5.63;4.40;;;;;;;10.45;56.14;101439.00;5058096;28;20413;-69
2022/05/03 00:21:43;;;;;;;5.80;5.07;;;;;;;10.29;56.71;101437.75;5058532;28;20411;-72
2022/05/03 00:24:08;;;;;;;6.03;5.43;;;;;;;10.50;56.30;101437.38;5073940;28;20441;-74
2022/05/03 00:26:35;;;;;;;5.60;5.10;;;;;;;10.59;56.07;101429.75;5079057;28;20226;-76
2022/05/03 00:29:00;;;;;;;5.97;4.93;;;;;;;10.56;55.69;101434.03;5078458;28;20169;-76
2022/05/03 00:31:29;;;;;;;10.00;5.20;;;;;;;10.35;56.70;101434.44;5077664;28;20826;-78
2022/05/03 00:33:54;;;;;;;6.20;4.77;;;;;;;10.26;57.22;101435.09;5078715;28;20173;-77
2022/05/03 00:36:21;;;;;;;12.83;4.93;;;;;;;10.58;56.54;101434.91;5077647;28;20426;-75
2022/05/03 00:38:46;;;;;;;5.47;4.70;;;;;;;10.55;56.61;101429.66;5078518;28;20223;-75
2022/05/03 00:41:18;;;;;;;5.60;5.10;;;;;;;10.36;56.57;101426.66;5079399;28;20403;-73
2022/05/03 00:43:53;;;;;;;4.60;4.20;;;;;;;10.35;57.27;101431.81;5077623;28;20229;-73
2022/05/03 00:46:25;;;;;;;5.27;4.77;;;;;;;10.12;57.54;101437.41;5077949;28;20470;-74
2022/05/03 00:49:18;;;;;;;5.50;5.00;;;;;;;10.28;56.98;101436.91;5078189;28;20415;-74
2022/05/03 00:52:06;;;;;;;6.43;5.10;;;;;;;10.59;56.53;101426.25;5077989;28;20407;-73
2022/05/03 00:54:47;;;;;;;5.23;4.77;;;;;;;10.43;57.52;101433.78;5077899;28;20430;-74
2022/05/03 00:57:53;;;;;;;6.73;5.20;;;;;;;10.54;57.79;101436.59;5077919;28;20463;-73
2022/05/03 01:00:20;;;;;;;6.63;5.40;;;;;;;10.44;58.00;101434.63;5077296;28;20701;-75
2022/05/03 01:03:01;;;;;;;8.07;5.50;;;;;;;10.29;58.76;101430.81;5077274;28;20628;-75
2022/05/03 01:05:28;;;;;;;6.90;6.20;;;;;;;10.47;58.84;101429.47;5078064;28;20410;-75
2022/05/03 01:08:05;;;;;;;7.63;6.40;;;;;;;10.47;58.50;101428.63;5077401;28;20454;-74
2022/05/03 01:10:38;;;;;;;8.30;6.03;;;;;;;10.25;59.24;101436.81;5078033;28;20407;-75
2022/05/03 01:13:24;;;;;;;6.77;6.17;;;;;;;9.97;60.94;101435.28;5077870;28;20463;-75
2022/05/03 01:16:02;;;;;;;7.27;6.57;;;;;;;10.04;60.98;101433.72;5077891;28;20410;-74
2022/05/03 01:18:36;;;;;;;7.93;7.00;;;;;;;10.04;61.18;101429.41;5078152;28;20449;-74
2022/05/03 01:21:23;;;;;;;7.40;6.60;;;;;;;9.80;62.18;101432.31;5077744;28;20817;-74
2022/05/03 01:24:15;;;;;;;14.53;8.53;;;;;;;9.90;62.16;101425.59;5078746;28;20374;-73
2022/05/03 01:27:10;;;;;;;8.67;7.87;;;;;;;10.10;61.74;101424.31;5082189;28;20757;-74
2022/05/03 01:29:36;;;;;;;10.40;9.30;;;;;;;9.86;61.91;101418.56;5064504;28;20419;-76
2022/05/03 01:32:06;;;;;;;8.27;7.40;;;;;;;9.62;62.60;101427.53;5081610;28;20429;-74
2022/05/03 01:34:32;;;;;;;9.27;8.00;;;;;;;9.71;62.21;101425.13;5081815;28;20161;-74
2022/05/03 01:37:00;;;;;;;9.23;8.33;;;;;;;9.65;62.11;101424.09;5082207;28;20647;-75
2022/05/03 01:39:44;;;;;;;9.20;8.30;;;;;;;9.51;62.45;101436.78;5081782;28;20407;-74
2022/05/03 01:42:11;;;;;;;8.73;7.83;;;;;;;9.05;63.20;101429.56;5080962;28;20660;-74
2022/05/03 01:44:38;;;;;;;11.23;8.27;;;;;;;9.35;62.89;101427.72;5081755;28;20421;-74
2022/05/03 01:47:24;;;;;;;8.33;7.47;;;;;;;9.41;62.42;101426.13;5081381;28;20479;-74
2022/05/03 01:50:19;;;;;;;8.10;7.30;;;;;;;9.45;62.43;101421.91;5081586;28;20414;-76
2022/05/03 01:53:12;;;;;;;7.80;7.00;;;;;;;9.69;61.66;101410.34;5081483;28;20423;-74
2022/05/03 01:56:12;;;;;;;7.77;6.93;;;;;;;9.40;62.71;101416.59;5081826;28;20484;-75
2022/05/03 01:59:03;;;;;;;8.30;7.50;;;;;;;9.55;61.95;101413.50;5080859;28;20831;-75
2022/05/03 02:01:53;;;;;;;8.70;7.80;;;;;;;9.54;61.38;101408.22;5081347;28;20683;-74
2022/05/03 02:04:30;;;;;;;9.60;7.60;;;;;;;9.32;62.90;101418.09;5081272;28;20413;-75
2022/05/03 02:07:17;;;;;;;10.17;7.27;;;;;;;9.37;62.37;101413.91;5081023;28;20497;-74
2022/05/03 02:10:06;;;;;;;7.80;7.00;;;;;;;9.37;63.42;101410.44;5081423;28;20400;-74
2022/05/03 02:12:31;;;;;;;7.63;6.83;;;;;;;9.37;63.48;101419.09;5080796;28;20435;-74
2022/05/03 02:15:09;;;;;;;8.47;7.50;;;;;;;9.49;62.63;101412.47;5081394;28;20403;-74
2022/05/03 02:17:52;;;;;;;10.87;7.77;;;;;;;9.29;63.47;101414.56;5081292;28;20173;-75
2022/05/03 02:20:42;;;;;;;9.17;7.50;;;;;;;9.29;63.52;101414.56;5081017;28;20724;-75
2022/05/03 02:23:14;;;;;;;8.40;7.30;;;;;;;9.37;63.78;101413.91;5081105;28;20713;-75
2022/05/03 02:25:56;;;;;;;8.60;7.80;;;;;;;9.37;64.01;101407.81;5081203;28;20414;-77
2022/05/03 02:28:36;;;;;;;8.33;7.63;;;;;;;9.21;64.08;101410.00;5080251;28;20446;-76
2022/05/03 02:31:03;;;;;;;8.27;7.47;;;;;;;9.27;64.07;101407.59;5080177;28;20426;-76
2022/05/03 02:33:32;;;;;;;11.33;7.77;;;;;;;9.18;64.52;101403.88;5080739;28;20696;-74
2022/05/03 02:35:59;;;;;;;8.03;7.30;;;;;;;9.47;63.93;101408.94;5080277;28;20415;-75
2022/05/03 02:38:37;;;;;;;8.17;7.33;;;;;;;9.35;64.44;101399.09;5081030;28;20404;-74
2022/05/03 02:41:03;;;;;;;8.17;7.37;;;;;;;8.95;65.85;101403.25;5080153;28;20698;-74
2022/05/03 02:43:31;;;;;;;8.53;7.67;;;;;;;9.18;65.43;101398.66;5080565;28;20426;-76
2022/05/03 02:46:19;;;;;;;12.10;7.47;;;;;;;9.15;65.30;101390.78;5080341;28;20585;-74
2022/05/03 02:48:53;;;;;;;7.13;6.43;;;;;;;8.84;66.62;101402.97;5079943;28;20415;-74
2022/05/03 02:51:22;;;;;;;8.57;7.60;;;;;;;8.97;65.96;101401.56;5079731;28;20415;-74
2022/05/03 02:53:52;;;;;;;8.30;7.17;;;;;;;9.31;64.87;101397.25;5079824;28;20753;-75
2022/05/03 02:56:37;;;;;;;7.70;6.90;;;;;;;9.16;65.63;101397.72;5079738;28;20411;-75
2022/05/03 02:59:11;;;;;;;8.77;7.93;;;;;;;9.31;65.00;101395.53;5079805;28;20415;-76
2022/05/03 03:01:48;;;;;;;8.77;7.53;;;;;;;9.32;65.15;101393.81;5080291;28;20414;-74
2022/05/03 03:04:24;;;;;;;10.97;7.53;;;;;;;8.99;65.95;101398.19;5079620;28;20442;-75
2022/05/03 03:06:52;;;;;;;8.30;7.47;;;;;;;8.98;66.49;101401.59;5079411;28;20466;-75
2022/05/03 03:09:39;;;;;;;9.20;8.30;;;;;;;8.73;66.75;101397.47;5079329;28;20408;-75
2022/05/03 03:12:30;;;;;;;10.83;8.57;;;;;;;8.96;65.90;101394.59;5079248;28;20701;-75
2022/05/03 03:15:07;;;;;;;8.57;7.67;;;;;;;8.68;66.83;101384.34;5079568;28;20423;-75
2022/05/03 03:17:35;;;;;;;9.23;8.20;;;;;;;8.87;66.66;101390.06;5080118;28;20419;-75
2022/05/03 03:20:11;;;;;;;9.37;8.07;;;;;;;8.81;66.14;101390.78;5079859;28;20446;-76
2022/05/03 03:22:42;;;;;;;9.10;8.20;;;;;;;8.89;65.94;101391.84;5079847;28;20411;-75
2022/05/03 03:25:13;;;;;;;11.90;8.83;;;;;;;8.76;66.25;101382.81;5079913;28;20426;-74
2022/05/03 03:27:39;;;;;;;10.40;8.47;;;;;;;8.86;66.09;101380.47;5079034;28;20565;-74
2022/05/03 03:30:06;;;;;;;11.83;9.07;;;;;;;8.86;65.76;101386.59;5079714;28;20497;-74
2022/05/03 03:32:33;;;;;;;10.83;8.83;;;;;;;8.72;66.62;101380.97;5080153;28;20413;-75
2022/05/03 03:34:59;;;;;;;9.80;8.90;;;;;;;9.12;65.57;101378.59;5078892;28;20465;-74
2022/05/03 03:37:27;;;;;;;9.00;8.10;;;;;;;9.05;65.57;101382.75;5079332;28;20419;-74
2022/05/03 03:39:52;;;;;;;8.60;7.80;;;;;;;8.88;66.34;101378.81;5080033;28;20407;-75
2022/05/03 03:42:18;;;;;;;10.03;7.87;;;;;;;8.85;66.15;101390.00;5079433;28;20437;-74
2022/05/03 03:44:45;;;;;;;9.87;8.47;;;;;;;8.71;65.87;101384.44;5078661;28;20176;-74
2022/05/03 03:47:11;;;;;;;8.30;7.50;;;;;;;8.81;66.07;101387.28;5077617;28;20282;-75
2022/05/03 03:49:36;;;;;;;10.07;8.70;;;;;;;8.76;65.91;101397.56;5078559;28;20422;-75
2022/05/03 03:52:02;;;;;;;9.70;8.70;;;;;;;8.88;65.55;101389.22;5077876;28;20187;-75
2022/05/03 03:54:28;;;;;;;9.40;8.00;;;;;;;8.70;65.87;101386.97;5078513;28;20181;-75
2022/05/03 03:56:55;;;;;;;8.30;7.40;;;;;;;8.74;66.44;101397.50;5078236;28;20482;-74
2022/05/03 03:59:20;;;;;;;9.30;8.40;;;;;;;8.87;65.77;101397.84;5078061;28;20407;-75
2022/05/03 04:01:48;;;;;;;10.80;8.97;;;;;;;8.56;66.72;101395.25;5078163;28;20415;-73
2022/05/03 04:04:14;;;;;;;9.30;8.40;;;;;;;9.08;65.63;101387.16;5077569;28;20180;-76
2022/05/03 04:06:39;;;;;;;8.57;7.77;;;;;;;8.62;66.86;101397.19;5077787;28;20468;-76
2022/05/03 04:09:05;;;;;;;10.63;8.30;;;;;;;8.72;66.03;101398.31;5078230;28;20253;-74
2022/05/03 04:11:46;;;;;;;8.83;8.03;;;;;;;8.58;67.08;101400.53;5078086;28;20466;-74
2022/05/03 04:14:12;;;;;;;13.03;9.03;;;;;;;8.59;67.50;101404.88;5078068;28;20204;-74
2022/05/03 04:16:38;;;;;;;14.80;9.10;;;;;;;8.68;66.99;101410.31;5078333;28;20805;-75
2022/05/03 04:19:03;;;;;;;10.23;8.90;;;;;;;8.37;67.36;101401.63;5077878;28;20403;-74
2022/05/03 04:21:29;;;;;;;9.57;8.50;;;;;;;8.62;67.47;101404.06;5077980;28;20181;-74
2022/05/03 04:23:54;;;;;;;10.07;8.73;;;;;;;8.79;66.72;101404.56;5078376;28;20248;-73
2022/05/03 04:26:19;;;;;;;9.87;8.87;;;;;;;8.89;66.25;101402.25;5081732;28;20201;-73
2022/05/03 04:28:45;;;;;;;8.43;7.70;;;;;;;9.06;65.40;101402.69;5077899;28;20169;-73
2022/05/03 04:31:10;;;;;;;10.17;7.70;;;;;;;9.30;64.84;101396.38;5077836;28;20256;-74
2022/05/03 04:33:35;;;;;;;8.50;7.70;;;;;;;9.11;65.22;101397.63;5071349;28;20186;-74
2022/05/03 04:36:01;;;;;;;8.40;7.60;;;;;;;9.20;65.00;101402.19;5072068;28;20188;-74
2022/05/03 04:38:26;;;;;;;8.27;7.53;;;;;;;9.07;65.28;101404.47;5076620;28;20176;-74
2022/05/03 04:40:59;;;;;;;12.77;8.67;;;;;;;9.14;65.21;101396.84;5057783;28;20578;-73
2022/05/03 04:43:24;;;;;;;8.63;7.80;;;;;;;9.17;65.79;101396.91;5057517;28;20547;-75
2022/05/03 04:45:51;;;;;;;9.70;7.57;;;;;;;9.27;64.71;101401.50;5019534;28;1066950;-75
2022/05/03 04:48:16;;;;;;;9.37;8.40;;;;;;;9.42;64.40;101401.88;5063273;28;20281;-75
2022/05/03 04:50:41;;;;;;;9.13;7.93;;;;;;;9.38;63.88;101399.19;5072965;28;20831;-74
2022/05/03 04:53:07;;;;;;;9.13;8.20;;;;;;;9.33;63.73;101406.84;5069632;28;20184;-74
2022/05/03 04:55:32;;;;;;;9.63;8.70;;;;;;;9.38;64.15;101405.25;5078009;28;20169;-73
2022/05/03 04:57:58;;;;;;;9.90;8.77;;;;;;;9.63;63.84;101397.19;5066533;28;20176;-75
2022/05/03 05:00:23;;;;;;;10.10;9.10;;;;;;;9.60;63.86;101411.88;5078122;28;20264;-74
2022/05/03 05:02:48;;;;;;;13.80;10.87;;;;;;;9.83;63.51;101410.66;5078653;28;20242;-74
2022/05/03 05:05:14;;;;;;;10.43;8.70;;;;;;;9.59;63.97;101411.81;5079822;28;20168;-76
2022/05/03 05:07:39;;;;;;;10.63;9.37;;;;;;;9.54;63.98;101413.44;5079187;28;20232;-74
2022/05/03 05:10:23;;;;;;;11.13;9.70;;;;;;;9.55;63.91;101415.19;5078794;28;20203;-74
2022/05/03 05:12:49;;;;;;;11.17;9.97;;;;;;;10.05;63.02;101410.31;5078105;28;20222;-76
2022/05/03 05:15:14;;;;;;;12.37;11.10;;;;;;;9.91;62.81;101411.72;5078185;28;20418;-74
2022/05/03 05:17:39;;;;;;;13.27;11.87;;;;;;;9.98;62.74;101423.16;5077341;28;20173;-74
2022/05/03 05:20:05;;;;;;;13.07;11.77;;;;;;;9.80;63.15;101415.81;5077888;28;20271;-74
2022/05/03 05:22:30;;;;;;;13.73;11.37;;;;;;;9.82;63.06;101421.94;5077021;28;20187;-75
2022/05/03 05:24:56;;;;;;;12.07;10.80;;;;;;;9.88;63.49;101416.88;5074575;28;20188;-75
2022/05/03 05:27:22;;;;;;;11.97;10.67;;;;;;;10.01;62.87;101421.53;5081763;28;20247;-77
2022/05/03 05:29:48;;;;;;;12.10;10.80;;;;;;;9.83;63.37;101414.16;5079234;28;20531;-75
2022/05/03 05:32:13;;;;;;;12.23;9.33;;;;;;;10.01;63.88;101413.72;5081896;28;20464;-75
2022/05/03 05:34:38;;;;;;;13.90;11.70;;;;;;;10.05;63.57;101418.16;5082361;28;20177;-76
2022/05/03 05:37:04;;;;;;;11.90;10.47;;;;;;;10.00;65.19;101422.38;5078333;28;20441;-76
2022/05/03 05:39:29;;;;;;;14.43;9.80;;;;;;;10.19;64.02;101414.94;5073575;28;20253;-75
2022/05/03 05:41:59;;;;;;;14.40;11.10;;;;;;;10.09;63.74;101411.25;5074180;28;20212;-75
2022/05/03 05:44:25;;;;;;;11.77;10.57;;;;;;;10.45;63.61;101399.91;5076783;28;20580;-75
2022/05/03 05:46:52;;;;;;;11.83;10.63;;;;;;;10.51;63.47;101406.97;5073140;28;20636;-73
2022/05/03 05:49:17;;;;;;;13.53;10.50;;;;;;;10.53;64.36;101407.91;5074089;28;20438;-74
2022/05/03 05:51:43;;;;;;;12.83;11.53;;;;;;;10.37;64.58;101412.78;5075604;28;20435;-75
2022/05/03 05:54:08;;;;;;;12.90;11.47;;;;;;;10.63;64.00;101409.81;5077051;28;20168;-75
2022/05/03 05:56:34;;;;;;;15.90;12.60;;;;;;;10.43;64.43;101409.41;5067618;28;20203;-75
2022/05/03 05:58:59;;;;;;;13.80;12.40;;;;;;;10.27;65.75;101410.81;5057895;28;20261;-75
2022/05/03 06:01:26;;;;;;;12.83;11.30;;;;;;;10.29;65.87;101415.16;5074453;28;20188;-75
2022/05/03 06:03:51;;;;;;;14.70;12.20;;;;;;;10.60;64.38;101409.78;5063415;28;20165;-75
2022/05/03 06:06:17;;;;;;;15.23;12.80;;;;;;;10.58;64.80;101416.66;5076626;28;20572;-76
2022/05/03 06:08:42;;;;;;;13.40;12.00;;;;;;;10.60;64.96;101404.56;5075261;28;20473;-75
2022/05/03 06:11:08;;;;;;;15.00;12.50;;;;;;;10.54;65.72;101409.63;5074131;28;20222;-75
2022/05/03 06:13:34;;;;;;;14.43;12.93;;;;;;;10.80;64.92;101407.56;5069878;28;20455;-76
2022/05/03 06:16:09;;;;;;;13.93;12.43;;;;;;;10.68;65.69;101413.41;5080118;28;20434;-76
2022/05/03 06:18:34;;;;;;;14.30;12.03;;;;;;;10.94;64.98;101415.66;5080827;28;20190;-75
2022/05/03 06:21:01;;;;;;;14.63;12.50;;;;;;;11.15;64.37;101419.50;5080940;28;20421;-75
2022/05/03 06:23:27;;;;;;;16.10;11.93;;;;;;;11.05;64.44;101419.31;5080972;28;20173;-76
2022/05/03 06:25:52;;;;;;;16.03;12.43;;;;;;;11.09;64.09;101415.91;5081676;28;20456;-76
2022/05/03 06:28:19;;;;;;;14.23;12.70;;;;;;;11.17;64.20;101426.50;5078361;28;20173;-77
2022/05/03 06:30:44;;;;;;;14.77;13.10;;;;;;;11.09;65.10;101428.09;5080152;28;20499;-76
2022/05/03 06:33:09;;;;;;;17.10;13.80;;;;;;;11.25;65.57;101422.31;5080812;28;20512;-77
2022/05/03 06:35:35;;;;;;;15.00;13.07;;;;;;;11.60;64.66;101423.78;5065800;28;20239;-75
2022/05/03 06:38:00;;;;;;;13.50;11.30;;;;;;;13.42;63.00;101415.66;5067395;28;20205;-74
2022/05/03 06:40:26;;;;;;;15.83;11.50;;;;;;;13.32;59.55;101424.25;5078949;28;20176;-74
2022/05/03 06:42:51;;;;;;;11.23;8.43;;;;;;;15.28;57.43;101414.81;5080453;28;20173;-76
2022/05/03 06:45:17;;;;;;;12.07;10.80;;;;;;;14.22;56.75;101414.44;5079860;28;20192;-74
2022/05/03 06:47:42;;;;;;;13.10;11.27;;;;;;;15.24;54.71;101417.47;5069497;28;20247;-78
2022/05/03 06:50:09;;;;;;;12.07;9.87;;;;;;;15.16;54.49;101423.56;5080230;28;20298;-77
2022/05/03 06:52:34;;;;;;;12.40;11.13;;;;;;;14.89;55.73;101424.38;5080136;28;20240;-76
2022/05/03 06:54:59;;;;;;;10.20;9.20;;;;;;;16.08;51.96;101420.94;5079392;28;20418;-76
2022/05/03 06:57:25;;;;;;;12.70;11.50;;;;;;;14.21;56.17;101425.81;5077797;28;20176;-76
2022/05/03 06:59:50;;;;;;;19.17;13.50;;;;;;;13.51;58.25;101446.28;5074259;28;20616;-75
2022/05/03 07:02:16;;;;;;;13.60;12.30;;;;;;;12.56;61.36;101446.09;5077703;28;20173;-74
2022/05/03 07:04:44;;;;;;;17.43;13.80;;;;;;;12.81;61.29;101442.03;5077004;28;20181;-75
2022/05/03 07:07:10;;;;;;;16.40;14.70;;;;;;;12.84;61.63;101451.66;5077713;28;21057;-73
2022/05/03 07:09:36;;;;;;;15.60;14.00;;;;;;;12.78;62.50;101453.34;5077726;28;20406;-75
2022/05/03 07:12:01;;;;;;;15.87;14.20;;;;;;;12.40;64.08;101450.25;5072359;28;20484;-74
2022/05/03 07:14:27;;;;;;;18.90;14.33;;;;;;;12.33;64.75;101464.97;5080889;28;20454;-72
2022/05/03 07:16:52;;;;;;;19.90;15.30;;;;;;;12.23;65.55;101463.97;5075814;28;20168;-75
2022/05/03 07:24:46;;;;;;;19.67;16.50;;;;;;;12.24;67.76;101465.72;5075696;28;20828;-75
2022/05/03 07:27:13;;;;;;;18.97;17.00;;;;;;;12.23;68.13;101457.84;5077376;28;20463;-73
2022/05/03 07:29:38;;;;;;;20.10;16.70;;;;;;;12.30;68.55;101465.81;5075299;28;20181;-74
2022/05/03 07:32:11;;;;;;;23.20;17.83;;;;;;;12.15;68.74;101459.47;5076373;28;20479;-74
2022/05/03 07:34:36;;;;;;;19.63;17.43;;;;;;;12.13;69.64;101470.78;5073637;28;20185;-76
2022/05/03 07:37:15;;;;;;;22.53;17.37;;;;;;;12.56;68.75;101467.03;5073789;28;20853;-78
2022/05/03 07:39:40;;;;;;;21.03;16.57;;;;;;;12.26;69.80;101473.59;5078371;28;20188;-72
2022/05/03 07:42:06;;;;;;;21.03;16.60;;;;;;;12.73;69.01;101468.13;5070828;28;20394;-72
2022/05/03 07:44:32;;;;;;;21.00;16.90;;;;;;;12.82;68.93;101466.47;5078205;28;20188;-73
2022/05/03 07:46:57;;;;;;;17.90;16.00;;;;;;;13.01;68.63;101468.44;5071512;28;20580;-72
2022/05/03 07:49:23;;;;;;;26.20;16.57;;;;;;;12.61;69.22;101471.47;5066606;28;20255;-74
2022/05/03 07:51:48;;;;;;;20.33;17.60;;;;;;;12.72;69.69;101471.59;5061717;28;20277;-72
2022/05/03 07:54:14;;;;;;;20.23;15.90;;;;;;;12.82;68.93;101471.72;5074201;28;20242;-73
2022/05/03 07:56:39;;;;;;;19.20;15.90;;;;;;;12.94;68.86;101477.09;5079197;28;20181;-72
2022/05/03 07:59:06;;;;;;;29.73;15.97;;;;;;;12.71;68.36;101471.59;5077577;28;20438;-72
2022/05/03 08:01:32;;;;;;;21.63;15.90;;;;;;;12.46;69.35;101474.75;5077106;28;20188;-73
2022/05/03 08:03:57;;;;;;;20.87;16.17;;;;;;;12.63;69.92;101480.19;5075147;28;20419;-74
2022/05/03 08:06:24;;;;;;;18.00;16.07;;;;;;;12.87;68.66;101473.53;5078205;28;20465;-72
2022/05/03 08:08:51;;;;;;;20.57;17.30;;;;;;;12.92;68.52;101478.78;5078437;28;20184;-74
2022/05/03 08:11:18;;;;;;;21.97;16.03;;;;;;;12.70;69.08;101481.16;5078277;28;20480;-72
2022/05/03 08:13:45;;;;;;;18.43;15.90;;;;;;;12.90;68.26;101489.25;5076297;28;20437;-74
2022/05/03 08:16:18;;;;;;;19.23;16.27;;;;;;;12.43;69.81;101482.56;5075889;28;20675;-72
2022/05/03 08:18:43;;;;;;;21.87;16.10;;;;;;;12.71;68.83;101488.16;5069179;28;20692;-74
2022/05/03 08:21:11;;;;;;;22.43;16.17;;;;;;;12.57;69.37;101494.91;5072595;28;20438;-72
2022/05/03 08:23:39;;;;;;;18.90;16.07;;;;;;;12.37;70.11;101497.28;5066578;28;20593;-73
2022/05/03 08:26:05;;;;;;;19.27;16.07;;;;;;;12.19;70.49;101495.25;5074695;28;20555;-72
2022/05/03 08:28:39;;;;;;;22.67;18.30;;;;;;;12.25;71.07;101498.84;5077408;28;20522;-73
2022/05/03 08:31:04;;;;;;;21.13;17.03;;;;;;;12.22;71.02;101496.19;5077521;28;20275;-70
2022/05/03 08:33:30;;;;;;;27.00;18.17;;;;;;;12.40;70.61;101507.78;5074184;28;20931;-71
2022/05/03 08:35:57;;;;;;;21.27;15.50;;;;;;;11.95;71.44;101501.88;5077670;28;20607;-69
2022/05/03 08:43:53;;;;;;;28.47;15.33;;;;;;;12.23;69.33;101507.50;5076886;28;20850;-69
2022/05/03 08:46:25;;;;;;;17.43;13.53;;;;;;;13.06;67.96;101510.38;5074683;28;20585;-69
2022/05/03 08:48:57;;;;;;;17.53;14.60;;;;;;;13.48;65.76;101499.50;5060077;28;20521;-69
2022/05/03 08:51:23;;;;;;;18.70;13.00;;;;;;;14.63;62.33;101495.16;5076436;28;20426;-69
2022/05/03 08:53:52;;;;;;;14.17;12.40;;;;;;;14.81;61.40;101489.09;5076742;28;20427;-70
2022/05/03 08:56:18;;;;;;;14.90;12.40;;;;;;;15.46;59.70;101495.41;5054004;28;20749;-73
2022/05/03 08:58:46;;;;;;;21.57;11.90;;;;;;;14.65;60.27;101498.66;5074763;28;20458;-73
2022/05/03 09:01:11;;;;;;;11.70;10.50;;;;;;;14.48;59.96;101499.41;5068475;28;20431;-76
2022/05/03 09:03:37;;;;;;;13.30;10.73;;;;;;;14.58;58.39;101502.09;5062403;28;20849;-71
2022/05/03 09:06:06;;;;;;;10.13;9.13;;;;;;;15.23;55.91;101495.38;5072431;28;20189;-73
2022/05/03 09:08:33;;;;;;;12.07;10.33;;;;;;;14.80;57.32;101493.50;5071190;28;20206;-73
2022/05/03 09:11:02;;;;;;;11.57;9.73;;;;;;;13.97;59.18;101503.44;5077717;28;20437;-75
2022/05/03 09:13:29;;;;;;;10.97;8.90;;;;;;;15.01;57.04;101497.06;5073605;28;20488;-74
2022/05/03 09:15:57;;;;;;;12.90;8.90;;;;;;;15.77;52.94;101500.69;5076869;28;20783;-75
2022/05/03 09:18:31;;;;;;;11.30;7.83;;;;;;;16.76;49.94;101494.41;5075926;28;20401;-74
2022/05/03 09:23:51;;;;;;;9.07;6.50;;;;;;;18.11;45.20;101487.41;5074011;28;20437;-73
2022/05/03 09:26:21;;;;;;;6.80;6.10;;;;;;;17.07;46.93;101487.28;5075708;28;20488;-73
2022/05/03 09:28:53;;;;;;;10.53;8.17;;;;;;;16.43;46.88;101496.28;5077036;28;20510;-74
2022/05/03 09:31:36;;;;;;;7.63;6.73;;;;;;;16.48;46.87;101502.38;5076607;28;20422;-74
2022/05/03 09:34:37;;;;;;;10.20;5.80;;;;;;;16.32;46.63;101501.56;5075575;28;20668;-74
2022/05/03 09:37:07;;;;;;;9.97;6.60;;;;;;;16.94;45.57;101494.38;5073668;28;20432;-74
2022/05/03 09:39:38;;;;;;;8.83;6.27;;;;;;;17.75;43.54;101493.84;5073499;28;20694;-73
2022/05/03 09:42:12;;;;;;;10.03;6.77;;;;;;;17.79;43.61;101495.56;5076083;28;20431;-73
2022/05/03 09:45:02;;;;;;;7.60;5.93;;;;;;;17.70;43.81;101491.28;5065484;28;20656;-73
2022/05/03 09:47:28;;;;;;;7.73;5.57;;;;;;;17.81;43.99;101488.53;5074937;28;20991;-75
2022/05/03 09:49:54;;;;;;;7.50;5.60;;;;;;;18.73;41.95;101484.09;5078131;28;20500;-75
2022/05/03 09:52:39;;;;;;;7.87;6.07;;;;;;;18.38;41.63;101485.38;5080004;28;20458;-73
2022/05/03 09:55:09;;;;;;;8.60;5.97;;;;;;;18.21;41.86;101497.88;5056443;28;20410;-75
2022/05/03 09:57:44;;;;;;;6.47;5.30;;;;;;;18.24;41.76;101495.19;5080389;28;20426;-77
2022/05/03 10:00:12;;;;;;;9.70;5.80;;;;;;;17.60;42.91;101495.75;5062534;28;20437;-75
2022/05/03 10:02:40;;;;;;;6.43;5.43;;;;;;;17.24;43.40;101496.84;5068928;28;20423;-71
2022/05/03 10:05:06;;;;;;;7.83;6.00;;;;;;;16.43;45.02;101498.91;5080319;28;20435;-75
2022/05/03 10:07:32;;;;;;;8.53;6.10;;;;;;;17.20;44.13;101490.72;5062725;28;20500;-71
2022/05/03 10:09:57;;;;;;;9.77;6.63;;;;;;;17.71;42.80;101486.84;5079825;28;20184;-73
2022/05/03 10:12:23;;;;;;;7.70;5.37;;;;;;;17.34;43.63;101490.63;5076898;28;20586;-73
2022/05/03 10:14:49;;;;;;;7.03;5.70;;;;;;;18.24;42.25;101482.00;5080538;28;20177;-71
2022/05/03 10:20:42;;;;;;;11.30;5.30;;;;;;;17.97;41.71;101478.78;5076404;28;20602;-72
2022/05/03 10:23:23;;;;;;;6.70;4.77;;;;;;;17.74;42.45;101484.19;5080458;28;20423;-77
2022/05/03 10:25:50;;;;;;;6.30;4.50;;;;;;;17.54;42.50;101479.09;5079394;28;20738;-75
2022/05/03 10:28:16;;;;;;;8.27;4.57;;;;;;;18.38;41.40;101476.59;5079847;28;20807;-75
2022/05/03 10:31:04;;;;;;;7.93;5.23;;;;;;;18.78;39.64;101471.72;5079678;28;20487;-71
2022/05/03 10:33:30;;;;;;;6.67;4.60;;;;;;;18.30;40.64;101476.66;5067458;28;20283;-70
2022/05/03 10:35:55;;;;;;;11.30;5.30;;;;;;;17.70;42.06;101475.44;5079694;28;20884;-70
2022/05/03 10:38:46;;;;;;;6.67;4.60;;;;;;;16.42;44.65;101481.38;5076686;28;20185;-70
2022/05/03 10:41:22;;;;;;;8.67;4.40;;;;;;;16.55;44.10;101487.47;5077290;28;20181;-72
2022/05/03 10:43:48;;;;;;;7.47;4.30;;;;;;;17.40;43.02;101482.69;5070518;28;20884;-71
2022/05/03 10:46:18;;;;;;;7.23;4.73;;;;;;;17.24;42.77;101476.66;5079652;28;20474;-73
2022/05/03 10:49:03;;;;;;;9.57;5.37;;;;;;;16.85;43.03;101486.47;5079764;28;20193;-71
2022/05/03 10:51:29;;;;;;;9.17;5.20;;;;;;;17.08;43.13;101470.59;5077459;28;20875;-71
2022/05/03 10:53:58;;;;;;;7.67;4.77;;;;;;;16.62;43.70;101479.53;5078526;28;20477;-72
2022/05/03 10:56:24;;;;;;;5.13;4.63;;;;;;;15.97;45.62;101481.44;5077661;28;20197;-72
2022/05/03 10:59:10;;;;;;;10.43;5.20;;;;;;;16.42;43.59;101470.84;5076989;28;20467;-73
2022/05/03 11:01:55;;;;;;;11.37;5.20;;;;;;;17.40;42.24;101472.16;5074005;28;20281;-73
2022/05/03 11:04:21;;;;;;;8.00;4.70;;;;;;;16.33;43.66;101477.00;5075455;28;20696;-72
2022/05/03 11:06:49;;;;;;;6.73;5.00;;;;;;;17.74;41.28;101471.91;5078422;28;20572;-72
2022/05/03 11:09:24;;;;;;;6.83;4.90;;;;;;;17.76;41.36;101471.88;5079282;28;20499;-75
2022/05/03 11:11:50;;;;;;;8.07;4.80;;;;;;;18.68;39.12;101460.38;5078229;28;20427;-75
2022/05/03 11:14:21;;;;;;;8.00;4.80;;;;;;;17.43;41.58;101461.59;5072698;28;20516;-74
2022/05/03 11:17:05;;;;;;;7.40;5.27;;;;;;;17.51;41.96;101458.91;5073172;28;20804;-71
2022/05/03 11:19:34;;;;;;;5.83;4.50;;;;;;;17.24;41.70;101465.22;5075620;28;20477;-71
2022/05/03 11:21:59;;;;;;;5.63;4.60;;;;;;;17.21;41.96;101467.88;5070806;28;20658;-72
2022/05/03 11:24:29;;;;;;;7.23;4.50;;;;;;;16.76;42.69;101468.09;5072605;28;20456;-73
2022/05/03 11:26:57;;;;;;;10.20;5.60;;;;;;;17.32;41.42;101474.84;5078283;28;20236;-74
2022/05/03 11:29:27;;;;;;;5.93;4.60;;;;;;;16.69;42.90;101472.50;5079400;28;20664;-72
2022/05/03 11:31:53;;;;;;;9.90;4.53;;;;;;;16.75;42.21;101480.38;5071816;28;20494;-72
2022/05/03 11:34:18;;;;;;;6.03;4.50;;;;;;;17.40;41.20;101464.25;5078400;28;20441;-73
2022/05/03 11:36:47;;;;;;;6.50;4.40;;;;;;;16.84;43.35;101476.81;5079272;28;20183;-73
2022/05/03 11:39:13;;;;;;;6.67;4.20;;;;;;;17.64;40.67;101464.94;5076581;28;20180;-72
2022/05/03 11:41:39;;;;;;;9.37;4.50;;;;;;;17.68;40.11;101469.28;5078741;28;20447;-75
2022/05/03 11:44:05;;;;;;;8.50;4.40;;;;;;;18.76;38.93;101462.91;5076847;28;20191;-75
2022/05/03 11:46:30;;;;;;;6.83;4.33;;;;;;;17.74;40.18;101471.91;5064968;28;20471;-74
2022/05/03 11:49:02;;;;;;;5.73;4.00;;;;;;;17.54;40.05;101464.13;5070218;28;20194;-73
2022/05/03 11:57:19;;;;;;;7.00;4.33;;;;;;;16.11;43.46;101468.28;5073507;28;20516;-72
2022/05/03 11:59:45;;;;;;;9.90;5.97;;;;;;;17.09;41.96;101467.09;5094262;28;20469;-74